Time;durP1;ratioP1;P1;durP2;ratioP2;P2;SDS_P1;SDS_P2;PMS_P1;PMS_P2;Temp;Humidity;BMP_temperature;BMP_pressure;BME280_temperature;BME280_humidity;BME280_pressure;Samples;Min_cycle;Max_cycle;Signal;HPM_P1;HPM_P2
2021/12/21 00:02:01;;;;;;;2.30;2.10;;;4.70;99.90;;;;;;5024350;28;20817;-82
2021/12/21 00:04:30;;;;;;;4.53;1.80;;;4.70;99.90;;;;;;5028587;28;20204;-84
2021/12/21 00:07:01;;;;;;;4.22;1.90;;;4.70;99.90;;;;;;5024820;28;20221;-83
2021/12/21 00:09:29;;;;;;;6.72;2.33;;;4.60;99.90;;;;;;5023645;28;20212;-84
2021/12/21 00:11:59;;;;;;;4.10;2.00;;;4.70;99.90;;;;;;5020976;28;20654;-83
2021/12/21 00:14:37;;;;;;;4.45;2.20;;;4.70;99.90;;;;;;5032838;28;20262;-83
2021/12/21 00:17:13;;;;;;;6.20;2.15;;;4.70;99.90;;;;;;5021281;28;20228;-82
2021/12/21 00:19:51;;;;;;;2.78;2.47;;;4.70;99.90;;;;;;5011281;28;20270;-85
2021/12/21 00:23:12;;;;;;;4.05;2.30;;;4.70;99.90;;;;;;5036084;28;20226;-86
2021/12/21 00:25:36;;;;;;;4.25;2.10;;;4.60;99.90;;;;;;5026185;28;20216;-84
2021/12/21 00:28:05;;;;;;;2.42;2.22;;;4.60;99.90;;;;;;5022978;28;20698;-84
2021/12/21 00:30:34;;;;;;;5.13;1.98;;;4.70;99.90;;;;;;5029212;28;20305;-86
2021/12/21 00:33:02;;;;;;;2.25;2.05;;;4.70;99.90;;;;;;5019360;28;20312;-85
2021/12/21 00:35:30;;;;;;;4.40;2.63;;;4.70;99.90;;;;;;5029289;28;20192;-84
2021/12/21 00:38:00;;;;;;;6.05;1.92;;;4.60;99.90;;;;;;5027329;28;20210;-84
2021/12/21 00:40:28;;;;;;;2.35;2.15;;;4.60;99.90;;;;;;5022783;28;20271;-83
2021/12/21 00:42:57;;;;;;;6.57;1.88;;;4.60;99.90;;;;;;5030005;28;20245;-85
2021/12/21 00:45:25;;;;;;;5.68;1.40;;;4.60;99.90;;;;;;5019290;28;20274;-84
2021/12/21 00:47:54;;;;;;;5.45;1.80;;;4.60;99.90;;;;;;5030358;28;20199;-85
2021/12/21 00:50:23;;;;;;;2.25;1.83;;;4.60;99.90;;;;;;5031260;28;20615;-83
2021/12/21 00:52:54;;;;;;;2.40;2.05;;;4.60;99.90;;;;;;5019160;28;20243;-85
2021/12/21 00:55:24;;;;;;;4.10;2.33;;;4.60;99.90;;;;;;5006485;28;20259;-86
2021/12/21 00:57:53;;;;;;;2.08;1.73;;;4.50;99.90;;;;;;5024476;28;20783;-86
2021/12/21 01:00:23;;;;;;;4.55;1.85;;;4.50;99.90;;;;;;5031994;28;20281;-85
2021/12/21 01:02:52;;;;;;;1.70;1.60;;;4.50;99.90;;;;;;5032636;28;20208;-85
2021/12/21 01:05:28;;;;;;;5.07;2.03;;;4.50;99.90;;;;;;5038177;28;20317;-84
2021/12/21 01:07:59;;;;;;;1.90;1.60;;;4.50;99.90;;;;;;5030863;28;20199;-85
2021/12/21 01:13:40;;;;;;;3.63;2.03;;;4.50;99.90;;;;;;5015304;28;20238;-85
2021/12/21 01:16:23;;;;;;;2.58;1.90;;;4.40;99.90;;;;;;5027143;28;20821;-84
2021/12/21 01:19:07;;;;;;;3.65;1.77;;;4.40;99.90;;;;;;5024312;28;20293;-87
2021/12/21 01:21:41;;;;;;;4.40;2.05;;;4.50;99.90;;;;;;5033692;28;20254;-84
2021/12/21 01:29:51;;;;;;;4.95;1.60;;;4.40;99.90;;;;;;5018985;28;20581;-87
2021/12/21 01:32:29;;;;;;;3.55;1.65;;;4.40;99.90;;;;;;5035771;28;20286;-85
2021/12/21 01:35:03;;;;;;;3.63;1.95;;;4.40;99.90;;;;;;5035640;28;20678;-85
2021/12/21 01:37:43;;;;;;;3.45;2.10;;;4.40;99.90;;;;;;5020945;28;20222;-84
2021/12/21 01:40:26;;;;;;;1.98;1.60;;;4.40;99.90;;;;;;5027605;28;20262;-84
2021/12/21 01:51:20;;;;;;;4.20;1.60;;;4.40;99.90;;;;;;5014817;28;20725;-86
2021/12/21 01:53:49;;;;;;;1.95;1.58;;;4.50;99.90;;;;;;5031870;28;20660;-83
2021/12/21 01:56:19;;;;;;;3.97;2.35;;;4.50;99.90;;;;;;5030062;28;20991;-85
2021/12/21 01:58:50;;;;;;;6.72;3.65;;;4.30;99.90;;;;;;5026562;28;20614;-86
2021/12/21 02:01:22;;;;;;;7.70;3.90;;;4.30;99.90;;;;;;5017796;28;20319;-86
2021/12/21 02:03:50;;;;;;;6.18;3.28;;;4.20;99.90;;;;;;5023475;28;20287;-85
2021/12/21 02:06:22;;;;;;;6.57;3.92;;;4.10;99.90;;;;;;5036834;28;20419;-84
2021/12/21 02:08:51;;;;;;;7.78;4.32;;;4.10;99.90;;;;;;5021723;28;20232;-84
2021/12/21 02:11:20;;;;;;;8.50;4.25;;;4.00;99.90;;;;;;5033439;28;20283;-85
2021/12/21 02:13:52;;;;;;;7.28;3.25;;;4.00;99.90;;;;;;5021002;28;20738;-84
2021/12/21 02:16:28;;;;;;;8.38;4.63;;;4.00;99.90;;;;;;5025011;28;20207;-86
2021/12/21 02:19:01;;;;;;;7.40;3.17;;;3.90;99.90;;;;;;5031092;28;20248;-86
2021/12/21 02:21:36;;;;;;;7.72;4.45;;;3.80;99.90;;;;;;5023674;28;20228;-84
2021/12/21 02:24:11;;;;;;;9.57;4.00;;;3.80;99.90;;;;;;5017327;28;20264;-83
2021/12/21 02:26:48;;;;;;;4.18;3.15;;;3.70;99.90;;;;;;5024368;28;20305;-82
2021/12/21 02:29:18;;;;;;;7.30;3.97;;;3.70;99.90;;;;;;5024036;28;20237;-85
2021/12/21 02:31:49;;;;;;;7.60;4.20;;;3.70;99.90;;;;;;5028371;28;20242;-82
2021/12/21 02:34:19;;;;;;;5.97;3.08;;;3.70;99.90;;;;;;5029557;28;20204;-83
2021/12/21 02:36:51;;;;;;;6.35;4.95;;;3.60;99.90;;;;;;5014440;28;20685;-82
2021/12/21 02:39:21;;;;;;;7.90;4.45;;;3.60;99.90;;;;;;5027082;28;20729;-85
2021/12/21 02:41:50;;;;;;;3.95;3.10;;;3.50;99.90;;;;;;5029058;28;20671;-86
2021/12/21 02:44:18;;;;;;;7.43;4.20;;;3.50;99.90;;;;;;5029188;28;20293;-84
2021/12/21 02:46:47;;;;;;;6.13;4.20;;;3.50;99.90;;;;;;5018103;28;20232;-84
2021/12/21 02:49:16;;;;;;;7.40;4.80;;;3.50;99.90;;;;;;5025898;28;20572;-85
2021/12/21 02:51:46;;;;;;;5.38;3.95;;;3.40;99.90;;;;;;5031914;28;20727;-84
2021/12/21 02:54:18;;;;;;;5.07;3.45;;;3.50;99.90;;;;;;5030676;28;20202;-86
2021/12/21 02:56:47;;;;;;;6.15;4.07;;;3.40;99.90;;;;;;5024985;28;20203;-84
2021/12/21 02:59:15;;;;;;;8.52;3.80;;;3.40;99.90;;;;;;5024555;28;20214;-85
2021/12/21 03:01:44;;;;;;;8.50;4.60;;;3.30;99.90;;;;;;5024974;28;20227;-83
2021/12/21 03:04:12;;;;;;;5.43;4.03;;;3.30;99.90;;;;;;5021025;28;20207;-87
2021/12/21 03:07:30;;;;;;;4.55;4.13;;;3.20;99.90;;;;;;5023701;28;20640;-83
2021/12/21 03:10:03;;;;;;;5.13;2.70;;;3.30;99.90;;;;;;5035080;28;20741;-85
2021/12/21 03:13:52;;;;;;;4.20;3.35;;;3.20;99.90;;;;;;5020521;28;20194;-85
2021/12/21 03:15:23;;;;;;;5.85;2.85;;;3.20;99.90;;;;;;5027022;28;20226;-85
2021/12/21 03:17:53;;;;;;;3.50;2.90;;;3.20;99.90;;;;;;5021803;28;20308;-85
2021/12/21 03:20:22;;;;;;;5.97;3.97;;;3.20;99.90;;;;;;5029000;28;20239;-86
2021/12/21 03:22:51;;;;;;;3.88;3.47;;;3.20;99.90;;;;;;5023733;28;20813;-86
2021/12/21 03:25:21;;;;;;;5.18;3.42;;;3.10;99.90;;;;;;5031932;28;20207;-88
2021/12/21 03:27:50;;;;;;;6.28;4.13;;;3.10;99.90;;;;;;5029455;28;20298;-86
2021/12/21 03:30:18;;;;;;;6.65;3.17;;;3.00;99.90;;;;;;5026153;28;20397;-85
2021/12/21 03:32:47;;;;;;;7.13;3.85;;;3.10;99.90;;;;;;5031513;28;20229;-83
2021/12/21 03:35:16;;;;;;;5.57;3.42;;;3.10;99.90;;;;;;5011075;28;20199;-83
2021/12/21 03:37:45;;;;;;;10.15;4.35;;;3.10;99.90;;;;;;5027806;28;20229;-85
2021/12/21 03:40:13;;;;;;;4.30;3.80;;;3.00;99.90;;;;;;5029134;28;20235;-85
2021/12/21 03:42:43;;;;;;;7.25;3.90;;;3.10;99.90;;;;;;5026813;28;20237;-86
2021/12/21 03:45:11;;;;;;;4.32;3.65;;;3.00;99.90;;;;;;5026137;28;20265;-85
2021/12/21 03:47:40;;;;;;;6.25;3.22;;;2.90;99.90;;;;;;5031473;28;20197;-85
2021/12/21 03:50:17;;;;;;;12.05;4.07;;;2.90;99.90;;;;;;5018120;28;20315;-84
2021/12/21 03:52:45;;;;;;;3.05;2.75;;;2.90;99.90;;;;;;5018210;28;20198;-87
2021/12/21 03:55:15;;;;;;;5.95;2.80;;;2.90;99.90;;;;;;5024405;28;20223;-87
2021/12/21 03:57:45;;;;;;;5.05;3.30;;;2.90;99.90;;;;;;5024441;28;20360;-85
2021/12/21 04:00:16;;;;;;;5.22;2.65;;;2.80;99.90;;;;;;5035627;28;20328;-85
2021/12/21 04:02:44;;;;;;;5.93;3.50;;;2.80;99.90;;;;;;5020097;28;20216;-86
2021/12/21 04:05:13;;;;;;;5.13;2.75;;;2.90;99.90;;;;;;5012626;28;20214;-87
2021/12/21 04:07:41;;;;;;;5.13;3.42;;;2.80;99.90;;;;;;5028709;28;20211;-85
2021/12/21 04:10:10;;;;;;;8.68;4.05;;;2.90;99.90;;;;;;5022966;28;20230;-85
2021/12/21 04:12:38;;;;;;;5.00;4.32;;;2.90;99.90;;;;;;5022801;28;20199;-84
2021/12/21 04:15:09;;;;;;;4.60;2.95;;;2.90;99.90;;;;;;5021519;28;20210;-83
2021/12/21 04:17:38;;;;;;;5.38;3.40;;;2.80;99.90;;;;;;5026196;28;20202;-84
2021/12/21 04:20:07;;;;;;;8.07;3.13;;;2.80;99.90;;;;;;5021010;28;20230;-86
2021/12/21 04:22:36;;;;;;;3.97;3.58;;;2.80;99.90;;;;;;5023769;28;20216;-84
2021/12/21 04:25:05;;;;;;;7.35;3.45;;;2.90;99.90;;;;;;5027367;28;20300;-85
2021/12/21 04:27:34;;;;;;;6.80;2.80;;;2.80;99.90;;;;;;5021276;28;20198;-84
2021/12/21 04:30:02;;;;;;;5.43;3.10;;;2.80;99.90;;;;;;5021754;28;20230;-83
2021/12/21 04:32:32;;;;;;;4.20;2.72;;;2.70;99.90;;;;;;5018595;28;20581;-86
2021/12/21 04:35:01;;;;;;;6.10;3.33;;;2.70;99.90;;;;;;5023551;28;20220;-82
2021/12/21 04:37:34;;;;;;;6.55;3.30;;;2.60;99.90;;;;;;5023477;28;20661;-84
2021/12/21 04:40:06;;;;;;;7.28;4.10;;;2.50;99.90;;;;;;5023828;28;20226;-87
2021/12/21 04:42:39;;;;;;;7.65;3.78;;;2.60;99.90;;;;;;5027034;28;20317;-86
2021/12/21 04:45:08;;;;;;;5.55;3.40;;;2.50;99.90;;;;;;5025868;28;20326;-81
2021/12/21 04:47:38;;;;;;;9.98;4.22;;;2.60;99.90;;;;;;5022534;28;20683;-83
2021/12/21 04:50:07;;;;;;;8.32;5.15;;;2.80;99.90;;;;;;5021354;28;20479;-85
2021/12/21 04:52:35;;;;;;;5.45;4.07;;;2.60;99.90;;;;;;5028933;28;20571;-84
2021/12/21 04:55:04;;;;;;;7.47;4.35;;;2.50;99.90;;;;;;5024042;28;20227;-86
2021/12/21 04:57:33;;;;;;;6.60;3.70;;;2.60;99.90;;;;;;5028984;28;20262;-86
2021/12/21 05:00:01;;;;;;;8.63;4.55;;;2.60;99.90;;;;;;5015951;28;20633;-85
2021/12/21 05:02:30;;;;;;;5.45;3.30;;;2.60;99.90;;;;;;5016953;28;20241;-83
2021/12/21 05:04:59;;;;;;;7.85;5.05;;;2.50;99.90;;;;;;5026441;28;20545;-85
2021/12/21 05:07:31;;;;;;;4.20;3.88;;;2.40;99.90;;;;;;5015499;28;20201;-83
2021/12/21 05:10:01;;;;;;;6.80;4.57;;;2.40;99.90;;;;;;5024394;28;20223;-79
2021/12/21 05:12:29;;;;;;;15.15;4.93;;;2.50;99.90;;;;;;5014275;28;20207;-79
2021/12/21 05:14:58;;;;;;;10.00;6.07;;;2.50;99.90;;;;;;5022914;28;20207;-85
2021/12/21 05:17:26;;;;;;;4.88;3.72;;;2.40;99.90;;;;;;5012276;28;20214;-85
2021/12/21 05:19:54;;;;;;;7.63;4.72;;;2.30;99.90;;;;;;5024390;28;20311;-86
2021/12/21 05:22:27;;;;;;;8.70;5.55;;;2.30;99.90;;;;;;5031546;28;20238;-84
2021/12/21 05:24:56;;;;;;;7.53;4.60;;;2.20;99.90;;;;;;5016162;28;20229;-86
2021/12/21 05:27:25;;;;;;;10.63;5.65;;;2.20;99.90;;;;;;5024500;28;20202;-86
2021/12/21 05:29:53;;;;;;;6.82;5.13;;;2.20;99.90;;;;;;5031497;28;20247;-83
2021/12/21 05:32:21;;;;;;;7.45;5.45;;;2.20;99.90;;;;;;5024360;28;20914;-84
2021/12/21 05:34:49;;;;;;;5.40;4.43;;;2.30;99.90;;;;;;5024210;28;20286;-86
2021/12/21 05:37:17;;;;;;;7.75;4.30;;;2.20;99.90;;;;;;5030635;28;20214;-84
2021/12/21 05:39:56;;;;;;;5.93;4.78;;;2.20;99.90;;;;;;5014763;28;20305;-83
2021/12/21 05:42:24;;;;;;;8.70;4.80;;;2.20;99.90;;;;;;5021738;28;20804;-86
2021/12/21 05:44:53;;;;;;;9.05;4.10;;;2.40;99.90;;;;;;5032361;28;20207;-84
2021/12/21 05:47:21;;;;;;;8.65;4.97;;;2.20;99.90;;;;;;5026661;28;20204;-84
2021/12/21 05:49:49;;;;;;;9.50;5.80;;;2.40;99.90;;;;;;5022442;28;20222;-85
2021/12/21 05:52:18;;;;;;;11.45;5.00;;;2.10;99.90;;;;;;5010304;28;20213;-85
2021/12/21 05:54:49;;;;;;;13.45;4.80;;;2.10;99.90;;;;;;5021501;28;20312;-85
2021/12/21 05:57:18;;;;;;;10.70;6.95;;;2.10;99.90;;;;;;5026003;28;20210;-83
2021/12/21 05:59:46;;;;;;;14.80;5.68;;;2.10;99.90;;;;;;5032687;28;20306;-84
2021/12/21 06:02:16;;;;;;;7.85;5.10;;;2.10;99.90;;;;;;5033025;28;20208;-85
2021/12/21 06:04:45;;;;;;;10.85;6.22;;;2.30;99.90;;;;;;5028310;28;20212;-83
2021/12/21 06:07:13;;;;;;;6.63;5.30;;;2.20;99.90;;;;;;5029031;28;20211;-84
2021/12/21 06:09:44;;;;;;;9.80;5.18;;;2.00;99.90;;;;;;5029207;28;20209;-84
2021/12/21 06:12:20;;;;;;;7.10;4.65;;;2.00;99.90;;;;;;5032543;28;20193;-83
2021/12/21 06:23:45;;;;;;;5.20;4.70;;;2.00;99.90;;;;;;5080522;28;20226;-85
2021/12/21 06:26:15;;;;;;;11.57;4.78;;;1.90;99.90;;;;;;5088933;28;20210;-83
2021/12/21 06:28:44;;;;;;;6.72;5.20;;;1.90;99.90;;;;;;5083035;28;20208;-86
2021/12/21 06:31:14;;;;;;;9.18;5.47;;;2.00;99.90;;;;;;5082888;28;20225;-86
2021/12/21 06:33:44;;;;;;;5.50;4.70;;;2.00;99.90;;;;;;5071866;28;20225;-85
2021/12/21 06:36:12;;;;;;;6.57;4.32;;;1.90;99.90;;;;;;5074539;28;20241;-82
2021/12/21 06:38:41;;;;;;;13.77;4.78;;;2.00;99.90;;;;;;5080327;28;20210;-83
2021/12/21 06:41:10;;;;;;;5.70;4.70;;;2.00;99.90;;;;;;5087387;28;20949;-83
2021/12/21 06:43:38;;;;;;;15.30;6.00;;;1.90;99.90;;;;;;5083492;28;20197;-84
2021/12/21 06:46:14;;;;;;;10.07;5.22;;;1.90;99.90;;;;;;5068868;28;20205;-84
2021/12/21 06:51:36;;;;;;;8.18;4.45;;;1.80;99.90;;;;;;5086072;28;20319;-82
2021/12/21 06:54:04;;;;;;;9.98;4.72;;;1.90;99.90;;;;;;5082008;28;20261;-85
2021/12/21 06:56:32;;;;;;;9.55;5.22;;;1.80;99.90;;;;;;5077197;28;20215;-82
2021/12/21 06:59:00;;;;;;;8.93;5.32;;;1.80;99.90;;;;;;5073647;28;20203;-84
2021/12/21 07:01:29;;;;;;;8.70;5.30;;;1.80;99.90;;;;;;5078065;28;20229;-83
2021/12/21 07:03:59;;;;;;;7.35;4.32;;;1.80;99.90;;;;;;5080770;28;20201;-82
2021/12/21 07:06:28;;;;;;;5.82;4.68;;;1.90;99.90;;;;;;5077470;28;21953;-81
2021/12/21 07:09:01;;;;;;;9.32;3.75;;;1.80;99.90;;;;;;5078442;28;20677;-84
2021/12/21 07:11:40;;;;;;;6.53;3.35;;;1.90;99.90;;;;;;5070839;28;20218;-82
2021/12/21 07:19:43;;;;;;;5.45;4.75;;;2.10;99.90;;;;;;5060343;28;20706;-83
2021/12/21 07:22:12;;;;;;;9.43;4.45;;;1.90;99.90;;;;;;5077495;28;20613;-82
2021/12/21 07:24:40;;;;;;;6.90;4.20;;;1.90;99.90;;;;;;5075940;28;20219;-85
2021/12/21 07:27:09;;;;;;;6.15;4.40;;;2.10;99.90;;;;;;5079691;28;20201;-81
2021/12/21 07:29:37;;;;;;;6.57;3.30;;;2.10;99.90;;;;;;5066372;28;20223;-82
2021/12/21 07:32:06;;;;;;;8.18;4.13;;;1.90;99.90;;;;;;5046804;28;20192;-81
2021/12/21 07:34:34;;;;;;;9.32;4.68;;;1.90;99.90;;;;;;5061826;28;20206;-83
2021/12/21 07:37:09;;;;;;;7.55;4.80;;;1.90;99.90;;;;;;5042075;28;20588;-83
2021/12/21 07:39:39;;;;;;;5.40;4.28;;;1.90;99.90;;;;;;5062505;28;20690;-85
2021/12/21 07:42:18;;;;;;;8.52;5.80;;;2.00;99.90;;;;;;5068427;28;20945;-85
2021/12/21 07:44:46;;;;;;;8.13;5.22;;;2.00;99.90;;;;;;5046617;28;20224;-83
2021/12/21 07:47:15;;;;;;;10.45;6.38;;;1.80;99.90;;;;;;5060484;28;20445;-84
2021/12/21 07:49:43;;;;;;;7.18;5.25;;;1.80;99.90;;;;;;5059007;28;20208;-83
2021/12/21 07:52:14;;;;;;;6.60;4.60;;;1.90;99.90;;;;;;5042716;28;20204;-81
2021/12/21 07:54:43;;;;;;;8.32;4.80;;;1.90;99.90;;;;;;5060216;28;20511;-83
2021/12/21 07:57:11;;;;;;;8.98;5.63;;;2.00;99.90;;;;;;5073733;28;20234;-82
2021/12/21 07:59:41;;;;;;;6.10;4.28;;;2.10;99.90;;;;;;5059010;28;20314;-81
2021/12/21 08:02:12;;;;;;;5.38;4.28;;;1.90;99.90;;;;;;5059802;28;20293;-82
2021/12/21 08:04:42;;;;;;;5.93;4.13;;;2.00;99.90;;;;;;5057026;28;20234;-81
2021/12/21 08:07:14;;;;;;;7.55;5.18;;;1.90;99.90;;;;;;5061200;28;20206;-82
2021/12/21 08:09:47;;;;;;;6.63;4.03;;;1.90;99.90;;;;;;5067534;28;20198;-82
2021/12/21 08:12:17;;;;;;;7.40;4.43;;;1.90;99.90;;;;;;5063957;28;20295;-82
2021/12/21 08:14:47;;;;;;;5.20;3.92;;;1.90;99.90;;;;;;5064173;28;20252;-82
2021/12/21 08:17:16;;;;;;;9.45;4.53;;;1.90;99.90;;;;;;5045667;28;20683;-82
2021/12/21 08:19:45;;;;;;;8.05;5.05;;;1.90;99.90;;;;;;5063374;28;20234;-81
2021/12/21 08:22:14;;;;;;;7.60;3.95;;;1.90;99.90;;;;;;5063256;28;20202;-82
2021/12/21 08:24:45;;;;;;;10.35;4.63;;;2.10;99.90;;;;;;5073602;28;20587;-83
2021/12/21 08:27:13;;;;;;;7.45;4.07;;;2.20;99.90;;;;;;5065178;28;20210;-80
2021/12/21 08:29:41;;;;;;;7.30;4.18;;;2.20;99.90;;;;;;5041515;28;20280;-81
2021/12/21 08:32:10;;;;;;;7.15;5.35;;;2.30;99.90;;;;;;5070819;28;21245;-82
2021/12/21 08:34:39;;;;;;;7.90;5.22;;;2.30;99.90;;;;;;5063411;28;20212;-84
2021/12/21 08:37:08;;;;;;;9.50;4.85;;;2.40;99.90;;;;;;5063293;28;20454;-84
2021/12/21 08:39:40;;;;;;;12.18;5.35;;;2.50;99.90;;;;;;5053640;28;20265;-85
2021/12/21 08:42:13;;;;;;;7.70;4.30;;;2.50;99.90;;;;;;5063142;28;20206;-82
2021/12/21 08:44:44;;;;;;;9.65;5.30;;;2.60;99.90;;;;;;5062699;28;20222;-84
2021/12/21 08:47:12;;;;;;;10.75;4.80;;;2.60;99.90;;;;;;5062590;28;20279;-82
2021/12/21 08:49:45;;;;;;;12.77;5.60;;;2.70;99.90;;;;;;5066960;28;20231;-82
2021/12/21 08:52:13;;;;;;;9.88;5.38;;;2.70;99.90;;;;;;5063613;28;20280;-82
2021/12/21 08:54:41;;;;;;;6.57;4.68;;;2.90;99.90;;;;;;5061332;28;20454;-82
2021/12/21 08:57:11;;;;;;;7.43;3.90;;;2.90;99.90;;;;;;5061710;28;20227;-83
2021/12/21 08:59:39;;;;;;;5.50;3.75;;;3.00;99.90;;;;;;5064936;28;20205;-82
2021/12/21 09:02:08;;;;;;;7.18;4.40;;;3.00;99.90;;;;;;5058417;28;20215;-82
2021/12/21 09:04:37;;;;;;;9.68;3.80;;;3.00;99.90;;;;;;5062577;28;20692;-81
2021/12/21 09:07:06;;;;;;;10.18;5.35;;;3.00;99.90;;;;;;5057407;28;20622;-83
2021/12/21 09:09:34;;;;;;;6.32;4.00;;;3.00;99.90;;;;;;5056826;28;20210;-82
2021/12/21 09:12:03;;;;;;;7.50;3.63;;;3.10;99.90;;;;;;5059600;28;20203;-85
2021/12/21 09:14:32;;;;;;;8.63;4.45;;;3.10;99.90;;;;;;5063982;28;20206;-81
2021/12/21 09:17:01;;;;;;;4.63;4.03;;;3.10;99.90;;;;;;5047691;28;20211;-83
2021/12/21 09:19:30;;;;;;;10.55;5.00;;;3.20;99.90;;;;;;5056638;28;20669;-82
2021/12/21 09:22:01;;;;;;;6.45;4.82;;;3.20;99.90;;;;;;5067770;28;20213;-81
2021/12/21 09:24:30;;;;;;;8.70;5.28;;;3.30;99.90;;;;;;5053657;28;20539;-87
2021/12/21 09:26:58;;;;;;;5.38;4.15;;;3.60;99.90;;;;;;5045711;28;20215;-85
2021/12/21 09:29:27;;;;;;;6.97;5.63;;;3.50;99.90;;;;;;5050443;28;20193;-88
2021/12/21 09:31:56;;;;;;;11.27;5.00;;;3.50;99.90;;;;;;5065864;28;20944;-84
2021/12/21 09:34:24;;;;;;;9.50;4.78;;;3.80;99.90;;;;;;5062444;28;20205;-84
2021/12/21 09:36:53;;;;;;;10.10;6.65;;;3.70;99.90;;;;;;5043074;28;20537;-85
2021/12/21 09:39:22;;;;;;;11.48;4.35;;;3.70;99.90;;;;;;5059159;28;20218;-84
2021/12/21 09:41:51;;;;;;;7.47;4.63;;;3.80;99.90;;;;;;5060665;28;20860;-85
2021/12/21 09:44:19;;;;;;;4.63;4.20;;;3.80;99.90;;;;;;5044814;28;20634;-84
2021/12/21 09:46:47;;;;;;;4.88;3.50;;;4.20;99.90;;;;;;5061542;28;20203;-81
2021/12/21 09:49:17;;;;;;;5.68;3.92;;;4.20;99.90;;;;;;5051574;28;20192;-83
2021/12/21 09:51:46;;;;;;;3.58;2.75;;;4.20;99.90;;;;;;5061551;28;21187;-84
2021/12/21 09:54:18;;;;;;;8.63;3.28;;;4.40;99.90;;;;;;5060819;28;20189;-84
2021/12/21 09:56:46;;;;;;;7.28;3.15;;;4.50;99.90;;;;;;5047488;28;20213;-83
2021/12/21 09:59:14;;;;;;;2.97;2.65;;;4.60;99.90;;;;;;5061269;28;20367;-84
2021/12/21 10:01:45;;;;;;;6.97;3.38;;;4.80;99.90;;;;;;5047715;28;20272;-86
2021/12/21 10:04:13;;;;;;;2.33;2.00;;;5.10;99.90;;;;;;5052809;28;20215;-84
2021/12/21 10:06:49;;;;;;;4.20;1.67;;;5.40;99.90;;;;;;5042823;28;20474;-82
2021/12/21 10:09:18;;;;;;;4.95;2.03;;;5.70;99.90;;;;;;5065035;28;20977;-83
2021/12/21 10:12:05;;;;;;;2.30;1.60;;;6.00;99.90;;;;;;5061995;28;20206;-85
2021/12/21 10:14:33;;;;;;;2.10;2.00;;;6.30;99.90;;;;;;5061241;28;20885;-83
2021/12/21 10:17:04;;;;;;;3.10;1.70;;;6.50;99.90;;;;;;5054994;28;20971;-85
2021/12/21 10:19:33;;;;;;;2.10;2.00;;;6.80;99.90;;;;;;5060138;28;20445;-86
2021/12/21 10:22:11;;;;;;;2.87;1.90;;;7.10;99.90;;;;;;5037224;28;20206;-86
2021/12/21 10:24:48;;;;;;;2.17;1.70;;;7.30;99.90;;;;;;5057847;28;20458;-88
2021/12/21 10:27:18;;;;;;;2.77;2.33;;;7.60;99.90;;;;;;5060614;28;20847;-85
2021/12/21 10:29:49;;;;;;;2.40;1.93;;;7.60;99.90;;;;;;5058463;28;20511;-83
2021/12/21 10:32:23;;;;;;;3.27;2.17;;;7.70;99.90;;;;;;5059375;28;20539;-86
2021/12/21 10:34:57;;;;;;;3.23;1.80;;;7.90;99.90;;;;;;5063648;28;20814;-86
2021/12/21 10:37:29;;;;;;;2.50;2.30;;;8.00;99.90;;;;;;5061551;28;20473;-86
2021/12/21 10:40:12;;;;;;;3.60;2.40;;;8.10;99.90;;;;;;5057789;28;20498;-88
2021/12/21 10:42:52;;;;;;;1.67;1.40;;;8.10;99.90;;;;;;5051651;28;20465;-86
2021/12/21 10:45:26;;;;;;;3.63;1.93;;;8.30;99.90;;;;;;5055269;28;20465;-88
2021/12/21 10:47:54;;;;;;;1.87;1.50;;;8.40;99.90;;;;;;5067755;28;20673;-87
2021/12/21 10:50:24;;;;;;;1.63;1.47;;;8.50;99.90;;;;;;5060127;28;20819;-85
2021/12/21 10:52:58;;;;;;;1.47;1.30;;;8.60;99.90;;;;;;5067203;28;21059;-87
2021/12/21 10:55:28;;;;;;;2.73;1.37;;;8.80;99.90;;;;;;5056902;28;21041;-85
2021/12/21 10:58:06;;;;;;;1.80;1.67;;;8.80;99.90;;;;;;5058887;28;20711;-87
2021/12/21 11:00:35;;;;;;;2.60;2.00;;;9.00;99.90;;;;;;5058910;28;20445;-86
2021/12/21 11:03:04;;;;;;;2.77;1.70;;;9.00;99.90;;;;;;5055005;28;20203;-86
2021/12/21 11:05:36;;;;;;;3.17;1.93;;;9.20;99.90;;;;;;5071558;28;20472;-86
2021/12/21 11:08:07;;;;;;;6.23;2.37;;;9.30;99.90;;;;;;5045530;28;20461;-86
2021/12/21 11:10:37;;;;;;;1.50;1.40;;;9.40;99.90;;;;;;5061563;28;20464;-86
2021/12/21 11:13:10;;;;;;;1.83;1.70;;;9.50;99.90;;;;;;5034215;28;20484;-87
2021/12/21 11:15:40;;;;;;;2.50;1.70;;;9.60;99.90;;;;;;5054917;28;20557;-86
2021/12/21 11:18:10;;;;;;;3.47;2.40;;;9.80;99.90;;;;;;5064101;28;20466;-87
2021/12/21 11:20:40;;;;;;;2.43;1.80;;;10.00;99.90;;;;;;5063447;28;20489;-88
2021/12/21 11:23:12;;;;;;;4.77;2.10;;;10.00;99.90;;;;;;5064061;28;20476;-87
2021/12/21 11:25:42;;;;;;;4.20;2.00;;;9.90;99.90;;;;;;5060789;28;20468;-87
2021/12/21 11:28:14;;;;;;;1.53;1.40;;;9.90;99.90;;;;;;5063724;28;20823;-83
2021/12/21 11:30:43;;;;;;;3.17;1.73;;;9.90;99.90;;;;;;5068484;28;20491;-87
2021/12/21 11:33:12;;;;;;;3.20;1.80;;;9.80;99.90;;;;;;5049335;28;20458;-82
2021/12/21 11:38:27;;;;;;;3.33;2.70;;;9.70;99.90;;;;;;5052412;28;20466;-82
2021/12/21 11:40:56;;;;;;;4.13;2.10;;;9.60;99.90;;;;;;5043956;28;20478;-83
2021/12/21 11:43:30;;;;;;;1.53;1.43;;;9.50;99.90;;;;;;5060216;28;20741;-82
2021/12/21 11:45:59;;;;;;;1.73;1.20;;;9.40;99.90;;;;;;5037636;28;20451;-85
2021/12/21 11:48:34;;;;;;;2.83;2.10;;;9.30;99.90;;;;;;5056635;28;20457;-86
2021/12/21 11:51:08;;;;;;;2.20;1.37;;;9.30;99.90;;;;;;5039291;28;20620;-84
2021/12/21 11:53:38;;;;;;;3.23;1.60;;;9.30;99.90;;;;;;5059874;28;20473;-86
2021/12/21 11:56:08;;;;;;;3.20;1.67;;;9.20;99.90;;;;;;5043447;28;20491;-87
2021/12/21 11:58:40;;;;;;;1.67;1.57;;;9.20;99.90;;;;;;5059204;28;20454;-86
2021/12/21 12:01:17;;;;;;;3.23;1.77;;;9.20;99.90;;;;;;5057336;28;20548;-87
2021/12/21 12:03:57;;;;;;;3.80;1.63;;;9.20;99.90;;;;;;5062654;28;20454;-84
2021/12/21 12:06:27;;;;;;;1.97;1.70;;;9.20;99.90;;;;;;5057433;28;20458;-86
2021/12/21 12:09:05;;;;;;;2.40;1.90;;;9.20;99.90;;;;;;5057792;28;20465;-85
2021/12/21 12:11:36;;;;;;;1.53;1.40;;;9.10;99.90;;;;;;5054829;28;20466;-88
2021/12/21 12:14:07;;;;;;;4.40;1.93;;;9.10;99.90;;;;;;5060850;28;20453;-86
2021/12/21 12:16:49;;;;;;;2.60;1.90;;;9.10;97.90;;;;;;5056180;28;20477;-85
2021/12/21 12:19:19;;;;;;;5.23;1.60;;;8.90;96.40;;;;;;5056329;28;20479;-88
2021/12/21 12:21:55;;;;;;;3.73;1.53;;;8.80;96.70;;;;;;5059030;28;20471;-83
2021/12/21 12:24:28;;;;;;;1.70;1.50;;;8.80;97.60;;;;;;5060165;28;20479;-87
2021/12/21 12:27:02;;;;;;;1.40;1.30;;;8.90;99.90;;;;;;5060077;28;20949;-87
2021/12/21 12:29:45;;;;;;;4.40;1.57;;;9.00;99.90;;;;;;5045597;28;20453;-87
2021/12/21 12:32:14;;;;;;;1.70;1.20;;;9.00;99.90;;;;;;5058910;28;20456;-87
2021/12/21 12:34:44;;;;;;;5.73;2.57;;;9.10;99.90;;;;;;5056113;28;20462;-88
2021/12/21 12:37:19;;;;;;;2.50;1.67;;;9.10;99.90;;;;;;5061229;28;20924;-85
2021/12/21 12:39:51;;;;;;;3.70;1.63;;;9.10;99.90;;;;;;5062817;28;21044;-90
2021/12/21 12:42:22;;;;;;;2.20;1.93;;;9.10;99.90;;;;;;5062004;28;20443;-87
2021/12/21 12:45:03;;;;;;;1.97;1.63;;;9.10;98.20;;;;;;5045211;28;20471;-88
2021/12/21 12:47:31;;;;;;;2.00;1.60;;;9.00;96.80;;;;;;5063974;28;20444;-86
2021/12/21 12:50:00;;;;;;;2.17;1.90;;;8.90;97.20;;;;;;5038004;28;20481;-87
2021/12/21 12:52:31;;;;;;;2.10;1.50;;;8.80;96.50;;;;;;5056983;28;20459;-87
2021/12/21 12:55:05;;;;;;;2.40;1.90;;;8.70;97.10;;;;;;5051807;28;20475;-89
2021/12/21 12:57:37;;;;;;;3.87;1.70;;;8.70;95.70;;;;;;5058448;28;20450;-87
2021/12/21 13:00:15;;;;;;;2.13;1.67;;;8.60;95.70;;;;;;5060692;28;20490;-87
2021/12/21 13:02:59;;;;;;;5.70;3.70;;;8.60;94.90;;;;;;5059499;28;20454;-87
2021/12/21 13:05:32;;;;;;;1.53;1.23;;;8.60;94.00;;;;;;5060959;28;20503;-89
2021/12/21 13:08:11;;;;;;;1.50;1.40;;;8.60;95.10;;;;;;5059377;28;20452;-87
2021/12/21 13:10:43;;;;;;;1.60;1.50;;;8.60;93.40;;;;;;5044886;28;20480;-89
2021/12/21 13:13:12;;;;;;;1.77;1.47;;;8.50;93.70;;;;;;5056881;28;20456;-88
2021/12/21 13:15:42;;;;;;;2.50;1.50;;;8.50;94.60;;;;;;5056332;28;20459;-87
2021/12/21 13:18:14;;;;;;;1.95;1.75;;;8.50;95.50;;;;;;5063166;28;20430;-87
2021/12/21 13:20:43;;;;;;;2.33;1.63;;;8.50;96.50;;;;;;5064676;28;20240;-88
2021/12/21 13:23:13;;;;;;;2.83;1.77;;;8.60;96.70;;;;;;5063538;28;20462;-89
2021/12/21 13:26:00;;;;;;;2.60;1.90;;;8.70;96.20;;;;;;5063291;28;20879;-88
2021/12/21 13:28:36;;;;;;;3.07;1.70;;;8.80;95.90;;;;;;5048530;28;20451;-89
2021/12/21 13:31:07;;;;;;;3.37;2.07;;;8.80;96.30;;;;;;5085590;28;20475;-87
2021/12/21 13:33:40;;;;;;;4.27;3.97;;;8.80;96.10;;;;;;5066897;28;20457;-87
2021/12/21 13:36:10;;;;;;;2.20;1.97;;;8.80;96.40;;;;;;5061311;28;20459;-87
2021/12/21 13:38:38;;;;;;;2.50;2.20;;;8.80;98.00;;;;;;5043848;28;20451;-89
2021/12/21 13:41:10;;;;;;;4.00;1.70;;;8.80;97.40;;;;;;5059065;28;20334;-90
2021/12/21 13:43:40;;;;;;;2.37;1.80;;;8.80;96.10;;;;;;5058745;28;20569;-85
2021/12/21 13:46:09;;;;;;;3.73;1.80;;;8.80;96.40;;;;;;5039017;28;20551;-88
2021/12/21 13:48:38;;;;;;;5.00;2.20;;;8.80;96.20;;;;;;5058288;28;20471;-87
2021/12/21 13:51:16;;;;;;;2.00;1.73;;;8.80;96.90;;;;;;5050936;28;21216;-87
2021/12/21 13:53:47;;;;;;;2.27;1.80;;;8.80;96.30;;;;;;5048478;28;20460;-90